createdAt,value
2019-05-19T00:01:05.104Z,100628.23
2019-05-19T00:03:40.194Z,100633.80
2019-05-19T00:06:15.298Z,100632.80
2019-05-19T00:08:50.352Z,100640.53
2019-05-19T00:11:25.460Z,100632.80
2019-05-19T00:14:01.995Z,100638.42
2019-05-19T00:16:37.143Z,100636.38
2019-05-19T00:19:25.866Z,100634.77
2019-05-19T00:21:49.258Z,100630.27
2019-05-19T00:24:24.294Z,100629.38
2019-05-19T00:26:59.400Z,100634.18
2019-05-19T00:29:34.489Z,100619.77
2019-05-19T00:32:10.730Z,100625.34
2019-05-19T00:34:45.857Z,100622.19
2019-05-19T00:37:20.938Z,100620.86
2019-05-19T00:39:55.945Z,100618.95
2019-05-19T00:42:31.071Z,100621.36
2019-05-19T00:45:07.274Z,100615.08
2019-05-19T00:47:42.451Z,100613.52
2019-05-19T00:50:17.774Z,100614.39
2019-05-19T00:52:52.772Z,100619.18
2019-05-19T00:55:28.179Z,100619.87
2019-05-19T00:58:05.768Z,100609.65
2019-05-19T01:00:40.990Z,100603.08
2019-05-19T01:03:16.060Z,100604.45
2019-05-19T01:05:51.062Z,100603.20
2019-05-19T01:08:26.153Z,100604.53
2019-05-19T01:11:01.176Z,100598.16
2019-05-19T01:13:36.254Z,100604.30
2019-05-19T01:16:11.261Z,100607.27
2019-05-19T01:18:46.400Z,100601.42
2019-05-19T01:21:22.118Z,100593.54
2019-05-19T01:23:57.220Z,100589.34
2019-05-19T01:26:32.316Z,100601.29
2019-05-19T01:29:07.304Z,100591.25
2019-05-19T01:31:42.419Z,100596.50
2019-05-19T01:34:17.374Z,100588.56
2019-05-19T01:36:52.440Z,100583.82
2019-05-19T01:39:27.460Z,100582.22
2019-05-19T01:42:02.669Z,100582.78
2019-05-19T01:44:37.846Z,100588.28
2019-05-19T01:47:13.024Z,100585.05
2019-05-19T01:49:47.992Z,100586.29
2019-05-19T01:52:23.164Z,100591.06
2019-05-19T01:54:58.177Z,100589.15
2019-05-19T01:57:33.471Z,100595.14
2019-05-19T02:00:10.345Z,100588.08
2019-05-19T02:02:45.550Z,100585.31
2019-05-19T02:05:22.035Z,100581.89
2019-05-19T02:07:57.160Z,100588.42
2019-05-19T02:10:33.670Z,100582.66
2019-05-19T02:13:09.830Z,100584.80
2019-05-19T02:15:45.025Z,100592.73
2019-05-19T02:18:20.016Z,100587.68
2019-05-19T02:20:55.180Z,100576.98
2019-05-19T02:23:30.380Z,100578.23
2019-05-19T02:26:06.030Z,100585.70
2019-05-19T02:28:41.043Z,100587.25
2019-05-19T02:31:16.148Z,100587.10
2019-05-19T02:34:01.016Z,100585.78
2019-05-19T02:36:36.139Z,100590.09
2019-05-19T02:39:11.378Z,100587.25
2019-05-19T02:41:49.775Z,100587.25
2019-05-19T02:44:26.188Z,100589.19
2019-05-19T02:47:03.581Z,100585.84
2019-05-19T02:49:41.307Z,100588.92
2019-05-19T02:52:19.400Z,100589.53
2019-05-19T02:54:55.312Z,100592.17
2019-05-19T02:57:32.440Z,100588.81
2019-05-19T03:00:09.469Z,100586.65
2019-05-19T03:02:45.234Z,100590.07
2019-05-19T03:05:20.317Z,100595.12
2019-05-19T03:07:57.006Z,100589.59
2019-05-19T03:10:32.929Z,100588.52
2019-05-19T03:13:08.690Z,100588.78
2019-05-19T03:15:43.699Z,100586.37
2019-05-19T03:18:18.820Z,100585.02
2019-05-19T03:21:09.982Z,100583.16
2019-05-19T03:23:30.696Z,100576.48
2019-05-19T03:26:05.795Z,100583.16
2019-05-19T03:28:40.860Z,100577.63
2019-05-19T03:31:34.545Z,100581.36
2019-05-19T03:34:09.561Z,100581.62
2019-05-19T03:36:44.584Z,100584.58
2019-05-19T03:39:19.668Z,100577.97
2019-05-19T03:41:54.714Z,100577.46
2019-05-19T03:44:29.710Z,100579.86
2019-05-19T03:47:04.820Z,100584.34
2019-05-19T03:49:39.950Z,100583.59
2019-05-19T03:52:15.060Z,100588.81
2019-05-19T03:54:50.172Z,100586.20
2019-05-19T03:57:25.271Z,100591.48
2019-05-19T04:00:00.246Z,100589.53
2019-05-19T04:02:35.455Z,100602.20
2019-05-19T04:05:11.271Z,100603.83
2019-05-19T04:07:47.429Z,100594.81
2019-05-19T04:10:24.414Z,100601.19
2019-05-19T04:12:59.510Z,100596.47
2019-05-19T04:15:34.485Z,100604.84
2019-05-19T04:18:09.488Z,100600.84
2019-05-19T04:23:14.462Z,100599.90
2019-05-19T04:25:49.628Z,100604.98
2019-05-19T04:28:25.007Z,100606.61
2019-05-19T04:31:00.150Z,100597.76
2019-05-19T04:33:38.353Z,100606.34
2019-05-19T04:36:13.452Z,100600.19
2019-05-19T04:38:48.435Z,100606.68
2019-05-19T04:41:23.645Z,100603.12
2019-05-19T04:43:58.782Z,100605.68
2019-05-19T04:46:33.838Z,100610.50
2019-05-19T04:49:09.925Z,100617.33
2019-05-19T04:51:45.032Z,100620.94
2019-05-19T04:54:20.123Z,100618.12
2019-05-19T04:56:56.709Z,100611.66
2019-05-19T04:59:32.155Z,100617.10
2019-05-19T05:02:07.276Z,100611.91
2019-05-19T05:04:42.237Z,100605.98
2019-05-19T05:07:17.402Z,100610.72
2019-05-19T05:09:52.663Z,100617.28
2019-05-19T05:12:27.761Z,100614.30
2019-05-19T05:15:03.102Z,100617.59
2019-05-19T05:17:38.263Z,100621.84
2019-05-19T05:20:13.470Z,100623.95
2019-05-19T05:22:48.575Z,100618.52
2019-05-19T05:25:23.694Z,100618.23
2019-05-19T05:27:58.806Z,100617.17
2019-05-19T05:30:33.998Z,100610.04
2019-05-19T05:33:09.023Z,100615.16
2019-05-19T05:35:44.103Z,100607.88
2019-05-19T05:38:19.134Z,100607.96
2019-05-19T05:40:54.255Z,100612.09
2019-05-19T05:43:29.375Z,100611.81
2019-05-19T05:46:04.547Z,100615.66
2019-05-19T05:48:39.552Z,100615.14
2019-05-19T05:51:14.637Z,100619.95
2019-05-19T05:53:49.762Z,100621.79
2019-05-19T05:56:24.777Z,100623.88
2019-05-19T05:58:59.782Z,100619.06
2019-05-19T06:01:34.861Z,100622.12
2019-05-19T06:04:09.885Z,100619.26
2019-05-19T06:06:45.866Z,100626.70
2019-05-19T06:09:21.137Z,100627.05
2019-05-19T06:11:56.364Z,100624.06
2019-05-19T06:14:31.485Z,100630.19
2019-05-19T06:17:06.594Z,100630.09
2019-05-19T06:19:41.699Z,100640.86
2019-05-19T06:22:16.775Z,100640.83
2019-05-19T06:24:51.792Z,100635.70
2019-05-19T06:27:26.773Z,100639.81
2019-05-19T06:30:01.851Z,100635.62
2019-05-19T06:32:44.176Z,100640.37
2019-05-19T06:35:19.456Z,100640.28
2019-05-19T06:37:54.501Z,100645.63
2019-05-19T06:40:29.611Z,100641.13
2019-05-19T06:43:04.710Z,100648.62
2019-05-19T06:45:40.159Z,100648.00
2019-05-19T06:48:15.372Z,100650.73
2019-05-19T06:50:51.386Z,100656.50
2019-05-19T06:53:26.629Z,100650.19
2019-05-19T06:56:07.020Z,100653.00
2019-05-19T06:58:42.299Z,100647.30
2019-05-19T07:01:17.380Z,100643.20
2019-05-19T07:03:52.665Z,100642.41
2019-05-19T07:06:27.788Z,100641.77
2019-05-19T07:09:05.928Z,100642.77
2019-05-19T07:11:40.951Z,100641.34
2019-05-19T07:14:16.072Z,100644.93
2019-05-19T07:16:51.341Z,100636.64
2019-05-19T07:19:26.458Z,100640.81
2019-05-19T07:22:04.921Z,100644.20
2019-05-19T07:24:40.094Z,100646.30
2019-05-19T07:27:15.092Z,100641.50
2019-05-19T07:29:50.300Z,100643.53
2019-05-19T07:32:25.397Z,100641.66
2019-05-19T07:35:01.117Z,100640.33
2019-05-19T07:37:36.369Z,100632.03
2019-05-19T07:40:13.678Z,100633.03
2019-05-19T07:42:48.779Z,100640.20
2019-05-19T07:45:24.452Z,100639.55
2019-05-19T07:47:59.469Z,100634.75
2019-05-19T07:50:38.034Z,100632.95
2019-05-19T07:53:11.391Z,100634.23
2019-05-19T07:55:47.579Z,100634.55
2019-05-19T07:58:22.567Z,100633.95
2019-05-19T08:00:57.700Z,100633.86
2019-05-19T08:03:32.973Z,100634.27
2019-05-19T08:06:08.563Z,100626.32
2019-05-19T08:08:43.839Z,100634.93
2019-05-19T08:11:19.037Z,100635.83
2019-05-19T08:13:54.055Z,100628.10
2019-05-19T08:16:29.070Z,100631.03
2019-05-19T08:19:04.115Z,100631.74
2019-05-19T08:21:39.203Z,100633.37
2019-05-19T08:24:14.241Z,100631.50
2019-05-19T08:26:49.276Z,100629.73
2019-05-19T08:29:25.249Z,100628.93
2019-05-19T08:32:00.328Z,100630.97
2019-05-19T08:34:37.663Z,100627.93
2019-05-19T08:37:12.819Z,100632.52
2019-05-19T08:39:47.859Z,100626.33
2019-05-19T08:42:22.864Z,100627.41
2019-05-19T08:44:57.923Z,100631.92
2019-05-19T08:47:33.159Z,100638.25
2019-05-19T08:50:09.173Z,100637.77
2019-05-19T08:52:44.319Z,100636.41
2019-05-19T08:55:19.989Z,100624.48
2019-05-19T08:57:55.154Z,100626.97
2019-05-19T09:00:30.405Z,100621.86
2019-05-19T09:03:05.389Z,100624.72
2019-05-19T09:05:40.415Z,100620.37
2019-05-19T09:08:15.491Z,100621.23
2019-05-19T09:10:50.601Z,100619.41
2019-05-19T09:13:25.687Z,100619.49
2019-05-19T09:16:00.818Z,100614.70
2019-05-19T09:18:36.064Z,100614.72
2019-05-19T09:21:11.178Z,100613.16
2019-05-19T09:23:46.169Z,100608.41
2019-05-19T09:26:21.379Z,100607.44
2019-05-19T09:28:56.411Z,100612.23
2019-05-19T09:31:31.597Z,100603.86
2019-05-19T09:34:06.625Z,100607.97
2019-05-19T09:36:43.041Z,100604.48
2019-05-19T09:39:18.049Z,100598.50
2019-05-19T09:41:53.335Z,100593.14
2019-05-19T09:44:28.419Z,100594.02
2019-05-19T09:47:03.495Z,100593.64
2019-05-19T09:49:38.603Z,100602.38
2019-05-19T09:52:16.976Z,100590.66
2019-05-19T09:54:50.572Z,100591.38
2019-05-19T09:57:25.822Z,100589.08
2019-05-19T10:00:00.818Z,100587.34
2019-05-19T10:02:36.324Z,100577.67
2019-05-19T10:05:11.991Z,100575.89
2019-05-19T10:07:47.252Z,100578.69
2019-05-19T10:11:16.738Z,100577.77
2019-05-19T10:13:51.870Z,100576.95
2019-05-19T10:16:26.942Z,100578.56
2019-05-19T10:19:02.162Z,100570.75
2019-05-19T10:21:38.421Z,100576.00
2019-05-19T10:24:13.540Z,100567.77
2019-05-19T10:26:48.658Z,100565.64
2019-05-19T10:29:23.987Z,100575.89
2019-05-19T10:31:59.485Z,100572.54
2019-05-19T10:34:34.696Z,100570.73
2019-05-19T10:37:10.051Z,100563.30
2019-05-19T10:39:45.197Z,100562.41
2019-05-19T10:42:20.284Z,100565.38
2019-05-19T10:44:55.582Z,100562.34
2019-05-19T10:47:30.775Z,100559.98
2019-05-19T10:50:06.045Z,100559.27
2019-05-19T10:52:41.178Z,100553.19
2019-05-19T10:55:16.394Z,100545.84
2019-05-19T10:57:51.484Z,100551.55
2019-05-19T11:00:26.601Z,100551.55
2019-05-19T11:03:01.707Z,100546.86
2019-05-19T11:05:36.738Z,100551.55
2019-05-19T11:08:11.845Z,100543.19
2019-05-19T11:10:46.954Z,100542.92
2019-05-19T11:13:22.097Z,100543.65
2019-05-19T11:15:57.101Z,100534.49
2019-05-19T11:18:33.255Z,100526.80
2019-05-19T11:21:10.651Z,100533.45
2019-05-19T11:23:45.908Z,100535.03
2019-05-19T11:26:20.934Z,100528.71
2019-05-19T11:28:56.044Z,100530.73
2019-05-19T11:31:31.101Z,100524.62
2019-05-19T11:34:07.833Z,100523.00
2019-05-19T11:36:42.847Z,100535.52
2019-05-19T11:39:17.854Z,100535.73
2019-05-19T11:41:52.875Z,100528.84
2019-05-19T11:44:31.475Z,100528.59
2019-05-19T11:47:26.769Z,100523.59
2019-05-19T11:50:14.823Z,100515.53
2019-05-19T11:52:49.830Z,100519.03
2019-05-19T11:55:26.705Z,100509.77
2019-05-19T11:58:01.782Z,100507.77
2019-05-19T12:00:36.897Z,100506.95
2019-05-19T12:03:11.997Z,100506.73
2019-05-19T12:05:47.009Z,100497.34
2019-05-19T12:08:22.156Z,100503.33
2019-05-19T12:10:57.360Z,100502.17
2019-05-19T12:13:34.967Z,100493.66
2019-05-19T12:16:09.509Z,100498.13
2019-05-19T12:18:44.581Z,100486.80
2019-05-19T12:21:20.247Z,100483.71
2019-05-19T12:23:55.451Z,100481.33
2019-05-19T12:26:30.747Z,100481.92
2019-05-19T12:29:05.838Z,100486.82
2019-05-19T12:31:41.090Z,100486.05
2019-05-19T12:34:16.108Z,100480.67
2019-05-19T12:36:51.381Z,100476.17
2019-05-19T12:39:26.521Z,100465.50
2019-05-19T12:42:01.601Z,100466.53
2019-05-19T12:44:36.683Z,100460.70
2019-05-19T12:47:13.013Z,100456.16
2019-05-19T12:49:48.299Z,100460.25
2019-05-19T12:52:24.345Z,100460.09
2019-05-19T12:55:00.537Z,100460.21
2019-05-19T12:57:36.346Z,100458.12
2019-05-19T13:00:11.666Z,100466.33
2019-05-19T13:02:46.833Z,100463.28
2019-05-19T13:05:21.937Z,100455.73
2019-05-19T13:07:56.913Z,100461.10
2019-05-19T13:10:31.901Z,100470.42
2019-05-19T13:13:06.946Z,100487.56
2019-05-19T13:15:42.070Z,100507.13
2019-05-19T13:18:17.248Z,100511.55
2019-05-19T13:20:52.383Z,100519.66
2019-05-19T13:23:27.534Z,100518.39
2019-05-19T13:26:02.660Z,100513.76
2019-05-19T13:28:37.775Z,100510.08
2019-05-19T13:31:13.604Z,100512.13
2019-05-19T13:33:48.678Z,100512.84
2019-05-19T13:36:23.782Z,100504.81
2019-05-19T13:38:58.796Z,100510.52
2019-05-19T13:41:34.191Z,100502.28
2019-05-19T13:44:09.208Z,100495.08
2019-05-19T13:46:44.504Z,100499.61
2019-05-19T13:49:19.460Z,100498.80
2019-05-19T13:51:54.464Z,100504.90
2019-05-19T13:54:29.512Z,100505.13
2019-05-19T13:57:12.377Z,100504.05
2019-05-19T13:59:41.405Z,100505.40
2019-05-19T14:02:16.494Z,100511.89
2019-05-19T14:04:51.492Z,100511.08
2019-05-19T14:07:26.500Z,100512.11
2019-05-19T14:10:01.482Z,100517.02
2019-05-19T14:12:37.240Z,100514.69
2019-05-19T14:15:12.367Z,100525.39
2019-05-19T14:17:48.403Z,100526.14
2019-05-19T14:20:23.598Z,100526.66
2019-05-19T14:22:58.772Z,100536.59
2019-05-19T14:25:33.875Z,100538.64
2019-05-19T14:28:09.024Z,100548.25
2019-05-19T14:30:44.056Z,100550.92
2019-05-19T14:33:19.161Z,100547.64
2019-05-19T14:35:54.293Z,100543.23
2019-05-19T14:38:29.444Z,100551.23
2019-05-19T14:41:04.440Z,100548.14
2019-05-19T14:43:39.530Z,100544.92
2019-05-19T14:46:14.620Z,100542.56
2019-05-19T14:48:49.692Z,100543.92
2019-05-19T14:51:25.023Z,100546.95
2019-05-19T14:54:00.194Z,100546.95
2019-05-19T14:56:36.289Z,100540.90
2019-05-19T14:59:11.418Z,100538.70
2019-05-19T15:01:46.514Z,100534.34
2019-05-19T15:04:21.567Z,100525.88
2019-05-19T15:06:56.604Z,100526.95
2019-05-19T15:09:31.766Z,100527.75
2019-05-19T15:12:07.062Z,100523.28
2019-05-19T15:14:42.291Z,100522.94
2019-05-19T15:17:17.309Z,100520.69
2019-05-19T15:19:52.523Z,100514.84
2019-05-19T15:22:27.723Z,100508.31
2019-05-19T15:25:02.890Z,100511.16
2019-05-19T15:27:38.139Z,100515.06
2019-05-19T15:30:14.454Z,100516.43
2019-05-19T15:32:49.784Z,100518.14
2019-05-19T15:35:24.903Z,100533.00
2019-05-19T15:38:00.092Z,100532.66
2019-05-19T15:40:36.657Z,100540.59
2019-05-19T15:43:12.382Z,100544.20
2019-05-19T15:45:47.457Z,100535.43
2019-05-19T15:48:22.614Z,100535.20
2019-05-19T15:50:57.770Z,100533.99
2019-05-19T15:53:32.974Z,100534.25
2019-05-19T15:56:08.048Z,100526.61
2019-05-19T15:58:43.120Z,100526.63
2019-05-19T16:01:18.306Z,100522.13
2019-05-19T16:03:53.467Z,100517.34
2019-05-19T16:06:28.533Z,100516.03
2019-05-19T16:09:05.014Z,100511.17
2019-05-19T16:11:43.398Z,100502.44
2019-05-19T16:14:18.654Z,100495.88
2019-05-19T16:16:54.100Z,100485.28
2019-05-19T16:19:29.319Z,100481.67
2019-05-19T16:22:04.662Z,100482.98
2019-05-19T16:24:39.792Z,100478.39
2019-05-19T16:27:16.666Z,100476.88
2019-05-19T16:29:52.072Z,100472.54
2019-05-19T16:32:27.436Z,100467.78
2019-05-19T16:35:02.553Z,100464.25
2019-05-19T16:37:37.833Z,100453.91
2019-05-19T16:40:13.844Z,100449.86
2019-05-19T16:42:49.671Z,100460.67
2019-05-19T16:45:24.932Z,100464.20
2019-05-19T16:48:00.118Z,100469.80
2019-05-19T16:50:35.414Z,100471.95
2019-05-19T16:53:10.659Z,100470.75
2019-05-19T16:55:46.210Z,100474.14
2019-05-19T16:58:21.866Z,100472.89
2019-05-19T17:00:58.436Z,100469.16
2019-05-19T17:03:33.667Z,100478.59
2019-05-19T17:06:08.989Z,100483.16
2019-05-19T17:08:44.130Z,100494.27
2019-05-19T17:11:19.429Z,100498.66
2019-05-19T17:13:54.574Z,100491.89
2019-05-19T17:16:30.004Z,100493.55
2019-05-19T17:19:06.075Z,100497.97
2019-05-19T17:21:43.636Z,100496.78
2019-05-19T17:24:18.469Z,100490.77
2019-05-19T17:26:53.591Z,100491.02
2019-05-19T17:29:29.151Z,100479.82
2019-05-19T17:32:06.259Z,100480.34
2019-05-19T17:34:41.071Z,100484.89
2019-05-19T17:37:16.055Z,100504.16
2019-05-19T17:39:51.237Z,100501.69
2019-05-19T17:42:26.450Z,100498.92
2019-05-19T17:45:01.458Z,100497.91
2019-05-19T17:47:37.644Z,100496.86
2019-05-19T17:50:14.685Z,100491.45
2019-05-19T17:52:49.790Z,100493.77
2019-05-19T17:55:24.908Z,100523.80
2019-05-19T17:58:01.734Z,100508.86
2019-05-19T18:00:39.920Z,100491.36
2019-05-19T18:03:14.907Z,100460.27
2019-05-19T18:05:49.919Z,100460.72
2019-05-19T18:08:24.898Z,100461.67
2019-05-19T18:11:00.018Z,100480.61
2019-05-19T18:13:35.185Z,100488.59
2019-05-19T18:16:10.417Z,100492.83
2019-05-19T18:18:45.544Z,100500.71
2019-05-19T18:21:20.647Z,100491.64
2019-05-19T18:23:55.716Z,100499.23
2019-05-19T18:26:30.850Z,100499.30
2019-05-19T18:29:05.952Z,100504.64
2019-05-19T18:31:40.998Z,100509.45
2019-05-19T18:34:16.007Z,100513.27
2019-05-19T18:36:51.097Z,100512.52
2019-05-19T18:39:26.279Z,100517.19
2019-05-19T18:42:01.430Z,100517.02
2019-05-19T18:44:36.464Z,100520.33
2019-05-19T18:47:12.344Z,100512.44
2019-05-19T18:49:48.604Z,100505.33
2019-05-19T18:52:23.951Z,100506.35
2019-05-19T18:54:59.034Z,100506.35
2019-05-19T18:57:34.279Z,100515.03
2019-05-19T19:00:09.757Z,100505.90
2019-05-19T19:02:47.874Z,100509.30
2019-05-19T19:05:23.055Z,100511.34
2019-05-19T19:07:58.258Z,100513.34
2019-05-19T19:10:33.978Z,100514.20
2019-05-19T19:13:08.983Z,100518.77
2019-05-19T19:15:44.008Z,100521.73
2019-05-19T19:18:19.005Z,100519.27
2019-05-19T19:20:54.786Z,100524.28
2019-05-19T19:23:29.891Z,100527.66
2019-05-19T19:26:05.012Z,100522.00
2019-05-19T19:28:42.543Z,100521.66
2019-05-19T19:31:17.647Z,100526.39
2019-05-19T19:33:53.807Z,100530.29
2019-05-19T19:36:29.045Z,100533.02
2019-05-19T19:39:05.435Z,100527.58
2019-05-19T19:41:41.083Z,100528.57
2019-05-19T19:44:16.229Z,100535.41
2019-05-19T19:46:53.686Z,100530.70
2019-05-19T19:49:29.122Z,100531.43
2019-05-19T19:52:04.162Z,100525.50
2019-05-19T19:54:39.302Z,100521.31
2019-05-19T19:57:14.457Z,100517.94
2019-05-19T19:59:49.650Z,100515.08
2019-05-19T20:02:24.681Z,100524.09
2019-05-19T20:05:00.629Z,100521.42
2019-05-19T20:07:35.657Z,100530.84
2019-05-19T20:10:10.757Z,100532.73
2019-05-19T20:12:45.773Z,100539.64
2019-05-19T20:15:22.497Z,100538.30
2019-05-19T20:17:57.570Z,100543.17
2019-05-19T20:20:32.558Z,100538.81
2019-05-19T20:23:07.776Z,100534.39
2019-05-19T20:25:42.880Z,100540.02
2019-05-19T20:28:17.925Z,100542.91
2019-05-19T20:30:53.061Z,100545.09
2019-05-19T20:33:28.113Z,100542.79
2019-05-19T20:36:03.472Z,100549.89
2019-05-19T20:38:38.953Z,100545.23
2019-05-19T20:41:13.954Z,100546.65
2019-05-19T20:43:49.069Z,100546.53
2019-05-19T20:46:24.071Z,100545.84
2019-05-19T20:48:59.176Z,100546.03
2019-05-19T20:51:34.360Z,100550.06
2019-05-19T20:54:09.461Z,100553.31
2019-05-19T20:56:44.520Z,100549.07
2019-05-19T20:59:19.577Z,100552.27
2019-05-19T21:01:54.594Z,100549.83
2019-05-19T21:04:29.574Z,100550.40
2019-05-19T21:07:07.671Z,100553.61
2019-05-19T21:09:41.408Z,100555.70
2019-05-19T21:12:17.507Z,100553.02
2019-05-19T21:14:53.597Z,100555.59
2019-05-19T21:17:28.639Z,100559.86
2019-05-19T21:20:03.858Z,100559.30
2019-05-19T21:22:39.048Z,100564.86
2019-05-19T21:25:14.689Z,100563.82
2019-05-19T21:27:49.820Z,100566.19
2019-05-19T21:30:24.836Z,100562.22
2019-05-19T21:32:59.870Z,100566.80
2019-05-19T21:35:35.864Z,100562.23
2019-05-19T21:38:11.007Z,100563.48
2019-05-19T21:40:46.986Z,100563.83
2019-05-19T21:43:22.284Z,100557.98
2019-05-19T21:45:57.344Z,100557.75
2019-05-19T21:48:35.797Z,100559.09
2019-05-19T21:51:10.791Z,100563.00
2019-05-19T21:53:45.884Z,100570.78
2019-05-19T21:56:21.062Z,100572.27
2019-05-19T21:58:56.183Z,100572.05
2019-05-19T22:01:31.257Z,100569.41
2019-05-19T22:04:06.275Z,100573.16
2019-05-19T22:06:43.324Z,100572.15
2019-05-19T22:09:18.482Z,100561.89
2019-05-19T22:11:53.471Z,100566.37
2019-05-19T22:14:28.495Z,100570.07
2019-05-19T22:17:03.487Z,100569.29
2019-05-19T22:19:38.620Z,100572.39
2019-05-19T22:22:13.720Z,100572.66
2019-05-19T22:24:48.753Z,100573.43
2019-05-19T22:27:23.754Z,100571.06
2019-05-19T22:29:58.941Z,100575.67
2019-05-19T22:32:33.916Z,100574.69
2019-05-19T22:35:13.147Z,100569.16
2019-05-19T22:37:49.233Z,100571.59
2019-05-19T22:40:25.600Z,100576.15
2019-05-19T22:43:00.590Z,100569.76
2019-05-19T22:45:35.815Z,100563.88
2019-05-19T22:48:10.914Z,100560.50
2019-05-19T22:50:46.039Z,100567.48
2019-05-19T22:53:21.022Z,100561.43
2019-05-19T22:55:56.163Z,100561.84
2019-05-19T22:58:31.254Z,100558.17
2019-05-19T23:01:06.260Z,100557.13
2019-05-19T23:03:41.277Z,100561.33
2019-05-19T23:06:16.375Z,100561.79
2019-05-19T23:08:51.505Z,100554.98
2019-05-19T23:11:26.487Z,100546.55
2019-05-19T23:14:01.657Z,100553.17
2019-05-19T23:16:36.677Z,100554.71
2019-05-19T23:19:11.741Z,100549.65
2019-05-19T23:21:46.718Z,100550.24
2019-05-19T23:24:21.817Z,100553.11
2019-05-19T23:26:56.804Z,100555.77
2019-05-19T23:29:32.164Z,100543.91
2019-05-19T23:32:07.658Z,100548.84
2019-05-19T23:34:42.840Z,100545.97
2019-05-19T23:37:17.825Z,100548.56
2019-05-19T23:39:54.260Z,100540.89
2019-05-19T23:42:29.315Z,100541.27
2019-05-19T23:45:04.430Z,100545.51
2019-05-19T23:47:39.410Z,100538.62
2019-05-19T23:50:14.830Z,100531.41
2019-05-19T23:52:49.910Z,100535.09
2019-05-19T23:55:25.003Z,100535.92
2019-05-19T23:57:59.973Z,100531.68
